Terminal Aerodrome Forecast
Issued by NWS

Home | Current Version | Previous Version | Text Only | Print | Product List | Glossary On
Versions: 1 2 3 4 5 6 7 8 9 10 11 12 13 14 15 16 17 18
000
FTUS43 KTOP 021300 AAA
TAFFOE
TAF AMD
KFOE 021349Z 0214/0312 09004KT 4SM BR VCTS OVC006CB
     FM021600 29008KT P6SM OVC023
      TEMPO 0216/0219 5SM -TSRA OVC030CB
     FM022000 33014G23KT P6SM BKN020
     FM030400 32010KT P6SM SKC=

USA.gov is the U.S. government's official web portal to all federal, state and local government web resources and services.